Time;durP1;ratioP1;P1;durP2;ratioP2;P2;SDS_P1;SDS_P2;PMS_P1;PMS_P2;Temp;Humidity;BMP_temperature;BMP_pressure;BME280_temperature;BME280_humidity;BME280_pressure;Samples;Min_cycle;Max_cycle;Signal;HPM_P1;HPM_P2
2021/10/20 00:01:35;;;;;;;3.50;2.72;;;15.30;99.90;;;;;;4071532;29;20296;-70
2021/10/20 00:03:36;;;;;;;3.83;2.80;;;15.30;99.90;;;;;;4074703;28;20055;-70
2021/10/20 00:05:36;;;;;;;5.90;3.00;;;15.30;99.90;;;;;;4072913;28;20039;-70
2021/10/20 00:07:37;;;;;;;7.03;2.60;;;15.30;99.90;;;;;;4072402;29;20091;-70
2021/10/20 00:09:37;;;;;;;4.38;3.20;;;15.30;99.90;;;;;;4055864;29;20567;-70
2021/10/20 00:11:38;;;;;;;4.75;2.78;;;15.40;99.90;;;;;;4073888;28;20113;-70
2021/10/20 00:13:39;;;;;;;3.95;2.72;;;15.30;99.90;;;;;;4074476;28;20032;-70
2021/10/20 00:15:39;;;;;;;3.67;2.63;;;15.40;99.90;;;;;;4074801;28;20028;-70
2021/10/20 00:17:40;;;;;;;3.55;2.63;;;15.40;99.90;;;;;;4055834;29;20123;-70
2021/10/20 00:19:41;;;;;;;3.25;2.40;;;15.40;99.90;;;;;;4075813;28;20036;-70
2021/10/20 00:21:42;;;;;;;4.00;2.75;;;15.40;99.90;;;;;;4073554;28;20096;-70
2021/10/20 00:23:42;;;;;;;5.22;2.53;;;15.40;99.90;;;;;;4073099;29;20032;-70
2021/10/20 00:25:43;;;;;;;3.95;2.60;;;15.40;99.90;;;;;;4073380;29;20119;-70
2021/10/20 00:27:44;;;;;;;4.68;2.10;;;15.40;99.90;;;;;;4070536;29;20543;-71
2021/10/20 00:29:45;;;;;;;4.13;2.65;;;15.40;99.90;;;;;;4074053;28;20042;-71
2021/10/20 00:31:45;;;;;;;3.10;2.45;;;15.40;99.90;;;;;;4071366;28;20035;-70
2021/10/20 00:33:46;;;;;;;5.60;2.13;;;15.40;99.90;;;;;;4071142;29;20115;-70
2021/10/20 00:35:47;;;;;;;4.03;2.50;;;15.50;99.90;;;;;;4075352;28;20099;-70
2021/10/20 00:37:47;;;;;;;5.15;2.40;;;15.40;99.90;;;;;;4074325;28;20428;-70
2021/10/20 00:39:49;;;;;;;4.43;2.45;;;15.50;99.90;;;;;;4070836;29;20267;-70
2021/10/20 00:41:52;;;;;;;4.72;2.60;;;15.40;99.90;;;;;;4073608;28;20443;-70
2021/10/20 00:43:53;;;;;;;5.72;2.75;;;15.50;99.90;;;;;;4068444;28;20036;-70
2021/10/20 00:45:54;;;;;;;3.38;2.80;;;15.50;99.90;;;;;;4071071;28;20267;-70
2021/10/20 00:47:54;;;;;;;2.80;2.30;;;15.50;99.90;;;;;;4074671;28;20039;-70
2021/10/20 00:49:55;;;;;;;3.22;2.40;;;15.40;99.90;;;;;;4073375;28;20036;-70
2021/10/20 00:51:56;;;;;;;2.85;2.20;;;15.50;99.90;;;;;;4071861;29;20032;-70
2021/10/20 00:54:00;;;;;;;4.53;2.40;;;15.50;99.90;;;;;;4072336;29;20036;-70
2021/10/20 00:56:01;;;;;;;4.07;2.70;;;15.50;99.90;;;;;;4071544;28;20519;-70
2021/10/20 00:58:02;;;;;;;3.35;2.45;;;15.50;99.90;;;;;;4075761;28;20038;-70
2021/10/20 01:00:07;;;;;;;3.83;2.33;;;15.50;99.90;;;;;;4074815;28;20063;-70
2021/10/20 01:02:08;;;;;;;3.78;2.20;;;15.50;99.90;;;;;;4069545;28;20064;-71
2021/10/20 01:04:09;;;;;;;3.88;2.30;;;15.50;99.90;;;;;;4070205;29;21131;-70
2021/10/20 01:06:10;;;;;;;3.53;2.33;;;15.50;99.90;;;;;;4072425;28;20044;-70
2021/10/20 01:08:11;;;;;;;3.33;2.47;;;15.50;99.90;;;;;;4073712;28;20090;-70
2021/10/20 01:10:13;;;;;;;3.60;2.42;;;15.50;99.90;;;;;;4068130;28;20098;-70
2021/10/20 01:12:15;;;;;;;5.53;2.67;;;15.50;99.90;;;;;;4073294;29;20044;-70
2021/10/20 01:14:16;;;;;;;4.68;2.42;;;15.50;99.90;;;;;;4071374;29;20032;-70
2021/10/20 01:16:19;;;;;;;4.55;2.80;;;15.50;99.90;;;;;;4055638;29;20064;-70
2021/10/20 01:18:20;;;;;;;3.20;2.30;;;15.50;99.90;;;;;;4072413;29;20043;-70
2021/10/20 01:20:28;;;;;;;3.85;2.40;;;15.50;99.90;;;;;;4071338;29;20048;-70
2021/10/20 01:22:29;;;;;;;3.60;2.53;;;15.50;99.90;;;;;;4071183;28;20682;-70
2021/10/20 01:24:29;;;;;;;3.10;2.38;;;15.50;99.90;;;;;;4071028;28;20050;-70
2021/10/20 01:26:30;;;;;;;5.55;2.30;;;15.60;99.90;;;;;;4072277;29;20040;-71
2021/10/20 01:28:30;;;;;;;4.40;2.22;;;15.50;99.90;;;;;;4073329;28;20035;-70
2021/10/20 01:30:31;;;;;;;4.55;2.33;;;15.50;99.90;;;;;;4070464;29;20118;-70
2021/10/20 01:32:32;;;;;;;3.25;2.35;;;15.50;99.90;;;;;;4075065;28;20043;-70
2021/10/20 01:34:34;;;;;;;3.58;2.67;;;15.50;99.90;;;;;;4072786;28;20055;-70
2021/10/20 01:36:35;;;;;;;3.53;2.35;;;15.50;99.90;;;;;;4068111;28;20117;-71
2021/10/20 01:38:35;;;;;;;3.60;2.53;;;15.60;99.90;;;;;;4073471;28;20396;-70
2021/10/20 01:40:36;;;;;;;5.70;2.55;;;15.60;99.90;;;;;;4078228;28;20094;-70
2021/10/20 01:42:38;;;;;;;3.50;2.50;;;15.60;99.90;;;;;;4077384;28;20115;-70
2021/10/20 01:44:39;;;;;;;3.95;2.38;;;15.60;99.90;;;;;;4075755;29;20454;-70
2021/10/20 01:46:40;;;;;;;4.30;2.33;;;15.60;99.90;;;;;;4075935;29;20048;-70
2021/10/20 01:48:41;;;;;;;3.22;2.33;;;15.60;99.90;;;;;;4070433;29;20043;-70
2021/10/20 01:50:41;;;;;;;3.58;2.13;;;15.60;99.90;;;;;;4076882;28;20697;-70
2021/10/20 01:52:43;;;;;;;3.60;2.08;;;15.60;99.90;;;;;;4075464;29;20139;-70
2021/10/20 01:54:44;;;;;;;3.28;2.38;;;15.60;99.90;;;;;;4076889;28;20055;-70
2021/10/20 01:56:46;;;;;;;3.05;2.00;;;15.60;99.90;;;;;;4075888;28;20047;-70
2021/10/20 01:58:46;;;;;;;4.35;2.50;;;15.60;99.90;;;;;;4072370;29;20129;-70
2021/10/20 02:00:47;;;;;;;3.80;2.47;;;15.60;99.90;;;;;;4072121;28;20510;-70
2021/10/20 02:02:48;;;;;;;4.05;2.38;;;15.70;99.90;;;;;;4074391;29;20075;-70
2021/10/20 02:04:49;;;;;;;3.90;2.33;;;15.70;99.90;;;;;;4071869;29;20044;-70
2021/10/20 02:06:50;;;;;;;4.82;2.38;;;15.60;99.90;;;;;;4070700;28;20052;-70
2021/10/20 02:08:50;;;;;;;3.75;2.58;;;15.70;99.90;;;;;;4072447;28;20054;-70
2021/10/20 02:10:51;;;;;;;3.15;2.10;;;15.70;99.90;;;;;;4073981;28;20110;-70
2021/10/20 02:12:52;;;;;;;3.35;2.33;;;15.70;99.90;;;;;;4075690;28;20448;-70
2021/10/20 02:14:52;;;;;;;3.15;2.30;;;15.70;99.90;;;;;;4073247;29;20056;-70
2021/10/20 02:16:53;;;;;;;4.80;2.13;;;15.60;99.90;;;;;;4074142;29;20131;-70
2021/10/20 02:18:54;;;;;;;4.15;2.55;;;15.70;99.90;;;;;;4072821;28;20467;-70
2021/10/20 02:20:54;;;;;;;4.28;2.83;;;15.70;99.90;;;;;;4074202;28;20059;-70
2021/10/20 02:22:55;;;;;;;3.63;2.33;;;15.60;99.90;;;;;;4068434;28;20029;-70
2021/10/20 02:24:55;;;;;;;3.70;2.65;;;15.70;99.90;;;;;;4073028;29;20138;-70
2021/10/20 02:26:56;;;;;;;7.40;2.60;;;15.60;99.90;;;;;;4074325;29;20032;-70
2021/10/20 02:28:57;;;;;;;5.90;2.22;;;15.70;99.90;;;;;;4071275;28;20115;-70
2021/10/20 02:30:58;;;;;;;6.00;2.58;;;15.70;99.90;;;;;;4075054;29;20416;-70
2021/10/20 02:32:58;;;;;;;3.92;2.20;;;15.70;99.90;;;;;;4075714;28;20040;-70
2021/10/20 02:34:59;;;;;;;6.85;2.80;;;15.70;99.90;;;;;;4074481;29;20123;-70
2021/10/20 02:37:00;;;;;;;3.85;2.55;;;15.70;99.90;;;;;;4074346;28;20031;-70
2021/10/20 02:39:01;;;;;;;6.07;2.72;;;15.70;99.90;;;;;;4066286;29;20032;-70
2021/10/20 02:41:02;;;;;;;6.65;2.53;;;15.60;99.90;;;;;;4074895;29;20511;-70
2021/10/20 02:43:02;;;;;;;4.70;2.30;;;15.60;99.90;;;;;;4075089;28;20039;-70
2021/10/20 02:45:03;;;;;;;2.85;2.25;;;15.60;99.90;;;;;;4074691;29;20447;-70
2021/10/20 02:47:04;;;;;;;4.10;2.50;;;15.60;99.90;;;;;;4077608;28;20063;-70
2021/10/20 02:49:05;;;;;;;5.45;2.83;;;15.70;99.90;;;;;;4074968;29;20070;-70
2021/10/20 02:51:05;;;;;;;3.15;2.22;;;15.70;99.90;;;;;;4075846;28;20391;-70
2021/10/20 02:53:06;;;;;;;6.10;2.58;;;15.60;99.90;;;;;;4072915;29;20035;-70
2021/10/20 02:55:08;;;;;;;4.47;2.35;;;15.60;99.90;;;;;;4075415;29;20031;-70
2021/10/20 02:57:08;;;;;;;5.32;2.53;;;15.60;99.90;;;;;;4074951;29;20042;-70
2021/10/20 02:59:09;;;;;;;3.63;2.33;;;15.60;99.90;;;;;;4075471;29;20472;-70
2021/10/20 03:01:09;;;;;;;4.80;2.42;;;15.70;99.90;;;;;;4073664;29;20495;-70
2021/10/20 03:03:10;;;;;;;4.07;2.53;;;15.70;99.90;;;;;;4072069;29;20039;-70
2021/10/20 03:05:10;;;;;;;4.03;2.72;;;15.60;99.90;;;;;;4076887;28;20559;-70
2021/10/20 03:07:11;;;;;;;3.17;2.40;;;15.70;99.90;;;;;;4074719;29;20036;-70
2021/10/20 03:09:12;;;;;;;5.35;2.58;;;15.70;99.90;;;;;;4076156;28;20503;-70
2021/10/20 03:11:12;;;;;;;4.85;2.53;;;15.60;99.90;;;;;;4070848;29;20044;-70
2021/10/20 03:13:13;;;;;;;4.43;2.70;;;15.60;99.90;;;;;;4070783;28;20031;-70
2021/10/20 03:15:14;;;;;;;5.78;2.85;;;15.60;99.90;;;;;;4075022;28;20035;-70
2021/10/20 03:17:16;;;;;;;5.15;2.78;;;15.70;99.90;;;;;;4073980;28;20114;-70
2021/10/20 03:19:16;;;;;;;5.13;2.90;;;15.70;99.90;;;;;;4072241;28;20504;-70
2021/10/20 03:21:17;;;;;;;3.97;2.45;;;15.70;99.90;;;;;;4072872;28;20027;-70
2021/10/20 03:23:18;;;;;;;6.72;2.70;;;15.70;99.90;;;;;;4072588;28;20355;-70
2021/10/20 03:25:18;;;;;;;3.53;2.40;;;15.70;99.90;;;;;;4074000;28;20031;-70
2021/10/20 03:27:19;;;;;;;4.72;2.55;;;15.70;99.90;;;;;;4074903;28;20067;-70
2021/10/20 03:29:19;;;;;;;3.10;2.40;;;15.70;99.90;;;;;;4073431;28;20498;-70
2021/10/20 03:31:20;;;;;;;3.70;2.60;;;15.70;99.90;;;;;;4073646;28;20516;-70
2021/10/20 03:33:21;;;;;;;5.03;2.60;;;15.70;99.90;;;;;;4074387;28;20526;-70
2021/10/20 03:35:21;;;;;;;6.85;2.67;;;15.70;99.90;;;;;;4072419;28;20114;-70
2021/10/20 03:37:22;;;;;;;5.05;2.47;;;15.70;99.90;;;;;;4076485;28;20054;-70
2021/10/20 03:39:22;;;;;;;4.65;3.00;;;15.70;99.90;;;;;;4071757;28;20036;-70
2021/10/20 03:41:23;;;;;;;3.55;2.40;;;15.70;99.90;;;;;;4074261;28;20040;-70
2021/10/20 03:43:24;;;;;;;5.20;2.53;;;15.70;99.90;;;;;;4074699;28;20422;-70
2021/10/20 03:45:24;;;;;;;4.18;2.70;;;15.70;99.90;;;;;;4072991;29;20107;-70
2021/10/20 03:47:25;;;;;;;4.68;2.58;;;15.70;99.90;;;;;;4071503;28;20067;-70
2021/10/20 03:49:26;;;;;;;5.13;2.88;;;15.80;99.90;;;;;;4072639;29;20032;-70
2021/10/20 03:51:27;;;;;;;5.53;2.47;;;15.70;99.90;;;;;;4070646;28;20122;-70
2021/10/20 03:53:27;;;;;;;3.13;2.67;;;15.70;99.90;;;;;;4072920;28;20411;-70
2021/10/20 03:55:28;;;;;;;5.80;2.78;;;15.70;99.90;;;;;;4072064;29;20508;-70
2021/10/20 03:57:34;;;;;;;6.07;2.85;;;15.70;99.90;;;;;;4072852;29;20120;-70
2021/10/20 03:59:34;;;;;;;4.45;2.88;;;15.70;99.90;;;;;;4072834;28;20035;-70
2021/10/20 04:01:35;;;;;;;5.30;2.88;;;15.70;99.90;;;;;;4072561;29;20514;-70
2021/10/20 04:03:37;;;;;;;3.85;2.70;;;15.70;99.90;;;;;;4075443;28;20521;-70
2021/10/20 04:05:37;;;;;;;9.00;2.93;;;15.70;99.90;;;;;;4074489;28;20115;-71
2021/10/20 04:07:39;;;;;;;5.28;2.92;;;15.70;99.90;;;;;;4071445;29;20260;-70
2021/10/20 04:09:41;;;;;;;4.68;3.35;;;15.70;99.90;;;;;;4073188;29;20042;-70
2021/10/20 04:11:41;;;;;;;4.20;2.72;;;15.70;99.90;;;;;;4066900;29;20558;-70
2021/10/20 04:13:42;;;;;;;6.03;2.60;;;15.70;99.90;;;;;;4074425;29;20035;-70
2021/10/20 04:15:42;;;;;;;7.65;3.10;;;15.70;99.90;;;;;;4074418;28;20500;-70
2021/10/20 04:17:43;;;;;;;3.85;2.83;;;15.70;99.90;;;;;;4072828;28;20040;-70
2021/10/20 04:19:43;;;;;;;3.95;2.70;;;15.70;99.90;;;;;;4074041;29;20640;-70
2021/10/20 04:21:44;;;;;;;4.65;3.00;;;15.70;99.90;;;;;;4073103;28;20036;-70
2021/10/20 04:23:44;;;;;;;7.60;3.00;;;15.70;99.90;;;;;;4072615;28;20164;-70
2021/10/20 04:25:45;;;;;;;5.60;3.25;;;15.70;99.90;;;;;;4073896;28;20027;-70
2021/10/20 04:27:47;;;;;;;4.40;2.95;;;15.70;99.90;;;;;;4073391;28;20023;-70
2021/10/20 04:29:48;;;;;;;3.90;2.75;;;15.70;99.90;;;;;;4075296;28;20263;-70
2021/10/20 04:31:48;;;;;;;4.50;2.80;;;15.70;99.90;;;;;;4076184;28;20020;-70
2021/10/20 04:33:49;;;;;;;4.20;2.85;;;15.70;99.90;;;;;;4069700;28;21504;-70
2021/10/20 04:35:49;;;;;;;5.20;3.42;;;15.70;99.90;;;;;;4066677;28;20076;-70
2021/10/20 04:37:50;;;;;;;4.20;3.17;;;15.70;99.90;;;;;;4069933;28;20428;-70
2021/10/20 04:39:56;;;;;;;5.13;3.05;;;15.70;99.90;;;;;;4065005;28;20502;-70
2021/10/20 04:41:57;;;;;;;5.75;2.88;;;15.60;99.90;;;;;;4063071;28;20056;-70
2021/10/20 04:43:58;;;;;;;3.58;2.60;;;15.70;99.90;;;;;;4067426;29;20905;-70
2021/10/20 04:45:58;;;;;;;4.82;3.45;;;15.70;99.90;;;;;;4068065;29;20042;-70
2021/10/20 04:47:59;;;;;;;5.15;2.90;;;15.70;99.90;;;;;;4065529;28;20028;-70
2021/10/20 04:50:00;;;;;;;7.78;2.97;;;15.70;99.90;;;;;;4064479;29;20158;-70
2021/10/20 04:52:01;;;;;;;4.03;2.95;;;15.70;99.90;;;;;;4064442;29;20148;-70
2021/10/20 04:54:02;;;;;;;4.13;2.53;;;15.60;99.90;;;;;;4067607;28;20040;-70
2021/10/20 04:56:02;;;;;;;7.35;3.50;;;15.70;99.90;;;;;;4061718;28;20481;-70
2021/10/20 04:58:07;;;;;;;5.05;2.97;;;15.70;99.90;;;;;;4065613;29;20157;-70
2021/10/20 05:00:08;;;;;;;6.45;3.60;;;15.70;99.90;;;;;;4069853;28;20032;-70
2021/10/20 05:02:09;;;;;;;7.35;3.22;;;15.70;99.90;;;;;;4060503;29;20531;-70
2021/10/20 05:04:10;;;;;;;8.57;3.58;;;15.70;99.90;;;;;;4061826;28;20038;-70
2021/10/20 05:06:10;;;;;;;5.50;3.25;;;15.60;99.90;;;;;;4065300;29;20035;-70
2021/10/20 05:08:11;;;;;;;4.13;3.08;;;15.60;99.90;;;;;;4067022;28;20036;-70
2021/10/20 05:10:11;;;;;;;9.05;3.92;;;15.60;99.90;;;;;;4065639;28;20227;-70
2021/10/20 05:12:12;;;;;;;6.53;3.40;;;15.60;99.90;;;;;;4064989;28;20048;-70
2021/10/20 05:14:13;;;;;;;5.15;3.35;;;15.60;99.90;;;;;;4066391;28;20068;-70
2021/10/20 05:16:13;;;;;;;5.07;3.30;;;15.60;99.90;;;;;;4072208;28;20031;-70
2021/10/20 05:18:14;;;;;;;5.28;3.35;;;15.60;99.90;;;;;;4071812;29;20062;-70
2021/10/20 05:20:16;;;;;;;5.45;3.33;;;15.60;99.90;;;;;;4072267;28;20027;-70
2021/10/20 05:22:16;;;;;;;5.25;3.28;;;15.60;99.90;;;;;;4072927;28;20039;-70
2021/10/20 05:24:17;;;;;;;6.40;3.58;;;15.60;99.90;;;;;;4059303;28;20344;-70
2021/10/20 05:26:19;;;;;;;4.72;3.08;;;15.60;99.90;;;;;;4065709;28;20044;-70
2021/10/20 05:28:19;;;;;;;6.30;3.17;;;15.60;99.90;;;;;;4070877;28;20055;-70
2021/10/20 05:30:20;;;;;;;5.55;3.28;;;15.60;99.90;;;;;;4076751;28;20046;-70
2021/10/20 05:32:21;;;;;;;5.15;3.28;;;15.60;99.90;;;;;;4064322;28;20230;-70
2021/10/20 05:34:21;;;;;;;4.97;3.55;;;15.50;99.90;;;;;;4074176;28;20047;-70
2021/10/20 05:36:23;;;;;;;4.82;3.42;;;15.50;99.90;;;;;;4073777;28;20395;-70
2021/10/20 05:38:23;;;;;;;7.32;4.05;;;15.50;99.90;;;;;;4067764;28;20049;-70
2021/10/20 05:40:24;;;;;;;5.97;4.03;;;15.50;99.90;;;;;;4071433;28;20078;-70
2021/10/20 05:42:25;;;;;;;9.00;5.15;;;15.50;99.90;;;;;;4077060;28;20073;-70
2021/10/20 05:44:25;;;;;;;10.32;4.93;;;15.50;99.90;;;;;;4076943;29;20061;-70
2021/10/20 05:46:26;;;;;;;7.00;4.93;;;15.50;99.90;;;;;;4078203;29;20035;-70
2021/10/20 05:48:27;;;;;;;6.22;3.72;;;15.40;99.90;;;;;;4080216;28;20130;-70
2021/10/20 05:50:27;;;;;;;7.07;4.03;;;15.50;99.90;;;;;;4077656;28;20155;-70
2021/10/20 05:52:28;;;;;;;7.32;3.97;;;15.40;99.90;;;;;;4081894;28;20042;-71
2021/10/20 05:54:28;;;;;;;4.88;3.40;;;15.40;99.90;;;;;;4077308;29;20155;-70
2021/10/20 05:56:29;;;;;;;4.70;3.40;;;15.40;99.90;;;;;;4076972;29;20511;-70
2021/10/20 05:58:29;;;;;;;6.25;3.80;;;15.40;99.90;;;;;;4067934;28;20518;-70
2021/10/20 06:00:30;;;;;;;5.97;3.35;;;15.40;99.90;;;;;;4075248;28;20633;-70
2021/10/20 06:02:30;;;;;;;5.20;3.35;;;15.40;99.90;;;;;;4080259;29;20043;-70
2021/10/20 06:04:31;;;;;;;5.10;3.70;;;15.40;99.90;;;;;;4074904;29;20039;-70
2021/10/20 06:06:32;;;;;;;5.53;3.63;;;15.40;99.90;;;;;;4077222;29;20138;-70
2021/10/20 06:08:33;;;;;;;4.45;3.00;;;15.40;99.90;;;;;;4077838;28;20048;-70
2021/10/20 06:10:34;;;;;;;5.97;3.70;;;15.40;99.90;;;;;;4078795;28;20048;-70
2021/10/20 06:12:35;;;;;;;6.45;3.45;;;15.40;99.90;;;;;;4077036;28;20046;-70
2021/10/20 06:14:36;;;;;;;7.20;4.50;;;15.40;99.90;;;;;;4081377;28;20138;-70
2021/10/20 06:16:38;;;;;;;8.98;4.90;;;15.30;99.90;;;;;;4079113;28;20679;-70
2021/10/20 06:18:39;;;;;;;6.28;4.20;;;15.30;99.90;;;;;;4080892;28;20067;-70
2021/10/20 06:20:39;;;;;;;9.80;4.55;;;15.30;99.90;;;;;;4074987;28;20032;-70
2021/10/20 06:22:42;;;;;;;5.53;3.60;;;15.30;99.90;;;;;;4074218;29;20082;-70
2021/10/20 06:24:43;;;;;;;6.57;3.75;;;15.30;99.90;;;;;;4076110;28;20480;-70
2021/10/20 06:26:43;;;;;;;5.82;3.60;;;15.30;99.90;;;;;;4072042;29;20038;-70
2021/10/20 06:28:44;;;;;;;6.38;3.88;;;15.20;99.90;;;;;;4078116;28;20119;-70
2021/10/20 06:30:44;;;;;;;14.75;3.83;;;15.30;99.90;;;;;;4078254;28;20038;-70
2021/10/20 06:32:45;;;;;;;9.60;3.60;;;15.30;99.90;;;;;;4076294;29;20043;-70
2021/10/20 06:34:46;;;;;;;7.03;4.03;;;15.30;99.90;;;;;;4079799;28;20031;-70
2021/10/20 06:36:46;;;;;;;5.72;3.20;;;15.20;99.90;;;;;;4071817;28;20395;-70
2021/10/20 06:38:47;;;;;;;6.30;3.97;;;15.30;99.90;;;;;;4076570;28;20499;-70
2021/10/20 06:40:48;;;;;;;12.43;4.68;;;15.30;99.90;;;;;;4075286;28;20036;-70
2021/10/20 06:42:49;;;;;;;6.93;3.70;;;15.30;99.90;;;;;;4073842;28;20275;-70
2021/10/20 06:44:49;;;;;;;5.18;3.42;;;15.30;99.90;;;;;;4073532;29;20032;-70
2021/10/20 06:46:50;;;;;;;5.05;3.47;;;15.30;99.90;;;;;;4074459;29;20052;-70
2021/10/20 06:48:51;;;;;;;4.28;3.05;;;15.30;99.90;;;;;;4078829;28;20407;-70
2021/10/20 06:50:51;;;;;;;6.55;3.92;;;15.30;99.90;;;;;;4074572;28;20131;-70
2021/10/20 06:52:52;;;;;;;5.35;3.58;;;15.30;99.90;;;;;;4076624;28;20043;-70
2021/10/20 06:54:52;;;;;;;7.32;3.97;;;15.30;99.90;;;;;;4074877;28;20119;-70
2021/10/20 06:56:54;;;;;;;9.07;4.40;;;15.40;99.90;;;;;;4075562;29;20125;-70
2021/10/20 06:58:55;;;;;;;8.45;4.65;;;15.40;99.90;;;;;;4074512;28;20550;-70
2021/10/20 07:00:56;;;;;;;8.52;5.05;;;15.40;99.90;;;;;;4076483;28;20032;-70
2021/10/20 07:02:56;;;;;;;7.75;4.57;;;15.40;99.90;;;;;;4073508;28;20038;-70
2021/10/20 07:04:57;;;;;;;6.40;4.30;;;15.40;99.90;;;;;;4071311;29;20032;-70
2021/10/20 07:06:57;;;;;;;9.77;4.80;;;15.40;99.90;;;;;;4077052;29;20125;-70
2021/10/20 07:08:58;;;;;;;8.05;4.38;;;15.50;99.90;;;;;;4070427;29;20469;-70
2021/10/20 07:10:58;;;;;;;7.60;4.25;;;15.50;99.90;;;;;;4071219;28;20150;-70
2021/10/20 07:12:59;;;;;;;11.23;3.80;;;15.50;99.90;;;;;;4076065;28;20044;-70
2021/10/20 07:15:00;;;;;;;7.95;3.70;;;15.50;99.90;;;;;;4078590;28;20047;-70
2021/10/20 07:17:01;;;;;;;8.00;3.72;;;15.50;99.90;;;;;;4076499;29;20440;-70
2021/10/20 07:19:06;;;;;;;5.97;3.78;;;15.60;99.90;;;;;;4075495;28;20369;-70
2021/10/20 07:21:06;;;;;;;9.35;4.07;;;15.60;99.90;;;;;;4074688;28;20028;-70
2021/10/20 07:23:07;;;;;;;4.72;3.30;;;15.60;99.90;;;;;;4074330;28;20083;-70
2021/10/20 07:25:09;;;;;;;4.95;3.45;;;15.60;99.90;;;;;;4073051;29;20732;-70
2021/10/20 07:27:10;;;;;;;7.00;4.13;;;15.60;99.90;;;;;;4074229;28;20388;-70
2021/10/20 07:29:10;;;;;;;6.13;3.90;;;15.70;99.90;;;;;;4073641;28;20042;-70
2021/10/20 07:31:11;;;;;;;4.43;3.10;;;15.70;99.90;;;;;;4072842;28;20044;-70
2021/10/20 07:33:11;;;;;;;6.47;3.85;;;15.70;99.90;;;;;;4073923;29;20048;-70
2021/10/20 07:35:14;;;;;;;6.65;3.70;;;15.70;99.90;;;;;;4076437;28;20024;-70
2021/10/20 07:37:15;;;;;;;;;;;15.70;99.90;;;;;;4066609;29;20051;-70
2021/10/20 07:39:15;;;;;;;6.68;3.58;;;15.70;99.90;;;;;;4073552;28;19925;-70
2021/10/20 07:41:16;;;;;;;10.05;4.25;;;15.70;99.90;;;;;;4072619;29;20046;-70
2021/10/20 07:43:17;;;;;;;6.40;3.55;;;15.70;99.90;;;;;;4077414;28;20035;-70
2021/10/20 07:45:19;;;;;;;7.95;3.53;;;15.80;99.90;;;;;;4077466;28;20040;-70
2021/10/20 07:47:24;;;;;;;8.70;4.35;;;15.80;99.90;;;;;;4072570;28;20448;-70
2021/10/20 07:49:24;;;;;;;5.25;3.58;;;15.80;99.90;;;;;;4075746;28;20058;-70
2021/10/20 07:51:25;;;;;;;6.53;3.97;;;15.80;99.90;;;;;;4075848;28;20155;-70
2021/10/20 07:53:26;;;;;;;6.70;4.45;;;15.80;99.90;;;;;;4075803;28;20174;-70
2021/10/20 07:55:26;;;;;;;7.60;4.38;;;15.90;99.90;;;;;;4070854;28;20036;-70
2021/10/20 07:57:29;;;;;;;8.30;3.67;;;16.00;99.90;;;;;;4071277;28;20038;-70
2021/10/20 07:59:29;;;;;;;5.68;3.38;;;16.00;99.90;;;;;;4077123;28;20114;-70
2021/10/20 08:01:30;;;;;;;10.85;4.07;;;16.10;99.90;;;;;;4071426;28;20048;-70
2021/10/20 08:03:30;;;;;;;4.78;3.60;;;16.10;99.90;;;;;;4077201;28;20080;-70
2021/10/20 08:05:31;;;;;;;6.53;4.13;;;16.20;99.90;;;;;;4072721;29;20035;-70
2021/10/20 08:07:32;;;;;;;5.32;3.88;;;16.20;99.90;;;;;;4075621;28;20123;-70
2021/10/20 08:09:32;;;;;;;7.22;4.63;;;16.30;99.90;;;;;;4073328;29;20086;-70
2021/10/20 08:11:33;;;;;;;7.50;4.32;;;16.30;99.90;;;;;;4072763;28;20110;-70
2021/10/20 08:13:33;;;;;;;6.25;4.00;;;16.30;99.90;;;;;;4056346;29;20028;-70
2021/10/20 08:15:35;;;;;;;5.38;3.92;;;16.40;99.90;;;;;;4074155;28;20047;-70
2021/10/20 08:17:36;;;;;;;7.87;4.13;;;16.40;99.90;;;;;;4071300;29;20570;-70
2021/10/20 08:19:37;;;;;;;5.30;3.88;;;16.50;99.90;;;;;;4072234;28;20286;-70
2021/10/20 08:21:38;;;;;;;5.75;3.83;;;16.50;99.90;;;;;;4071594;29;20499;-70
2021/10/20 08:23:41;;;;;;;6.10;3.72;;;16.50;99.90;;;;;;4072725;28;20031;-70
2021/10/20 08:25:42;;;;;;;8.25;3.70;;;16.50;99.90;;;;;;4069296;28;20036;-70
2021/10/20 08:27:43;;;;;;;6.78;4.38;;;16.60;99.90;;;;;;4076954;28;20395;-70
2021/10/20 08:29:44;;;;;;;5.97;3.88;;;16.60;99.90;;;;;;4077438;28;20082;-70
2021/10/20 08:31:44;;;;;;;7.22;4.07;;;16.70;99.90;;;;;;4074693;28;20040;-70
2021/10/20 08:33:45;;;;;;;6.70;4.00;;;16.80;99.90;;;;;;4074345;28;20513;-70
2021/10/20 08:35:45;;;;;;;6.05;3.67;;;16.90;99.90;;;;;;4073423;28;20424;-70
2021/10/20 08:37:54;;;;;;;9.70;3.97;;;17.00;99.90;;;;;;4067314;28;20040;-70
2021/10/20 08:39:55;;;;;;;8.88;3.95;;;17.10;99.90;;;;;;4073207;29;20511;-70
2021/10/20 08:41:57;;;;;;;3.83;3.08;;;17.20;99.90;;;;;;4074847;29;20038;-70
2021/10/20 08:43:59;;;;;;;4.68;3.45;;;17.20;99.90;;;;;;4073012;28;20285;-70
2021/10/20 08:46:00;;;;;;;6.38;3.85;;;17.20;99.90;;;;;;4073789;28;20083;-70
2021/10/20 08:48:00;;;;;;;7.32;3.78;;;17.30;99.90;;;;;;4073432;28;20491;-70
2021/10/20 08:50:07;;;;;;;7.85;4.15;;;17.40;99.90;;;;;;4070180;29;20031;-70
2021/10/20 08:52:09;;;;;;;4.45;3.35;;;17.40;99.90;;;;;;4072393;28;20440;-70
2021/10/20 08:54:10;;;;;;;5.85;3.42;;;17.50;99.90;;;;;;4079346;28;20054;-70
2021/10/20 08:56:14;;;;;;;6.05;3.90;;;17.50;99.90;;;;;;4073691;28;20032;-70
2021/10/20 08:58:14;;;;;;;5.20;3.88;;;17.50;99.90;;;;;;4075022;28;20456;-70
2021/10/20 09:00:16;;;;;;;5.13;3.38;;;17.50;99.90;;;;;;4074035;28;20043;-70
2021/10/20 09:02:21;;;;;;;8.27;3.70;;;17.40;99.90;;;;;;4075218;28;20028;-71
2021/10/20 09:04:22;;;;;;;10.18;4.00;;;17.40;99.90;;;;;;4068798;28;20031;-70
2021/10/20 09:06:27;;;;;;;4.63;3.70;;;17.40;99.90;;;;;;4052215;29;20579;-70
2021/10/20 09:08:45;;;;;;;5.32;4.03;;;17.40;99.90;;;;;;4080098;28;20598;-70
2021/10/20 09:10:46;;;;;;;6.88;4.13;;;17.40;99.90;;;;;;4070360;28;20127;-70
2021/10/20 09:12:47;;;;;;;8.23;4.10;;;17.30;99.90;;;;;;4075148;29;20036;-70
2021/10/20 09:14:47;;;;;;;7.88;4.20;;;17.30;99.90;;;;;;4072882;28;20408;-70
2021/10/20 09:16:48;;;;;;;6.85;4.53;;;17.30;99.90;;;;;;4076499;28;20027;-70
2021/10/20 09:18:48;;;;;;;5.35;4.05;;;17.30;99.90;;;;;;4071160;28;20063;-70
2021/10/20 09:20:51;;;;;;;5.50;3.92;;;17.20;99.90;;;;;;4055725;29;20032;-70
2021/10/20 09:23:05;;;;;;;7.95;3.97;;;17.30;99.90;;;;;;4068688;29;20098;-70
2021/10/20 09:25:06;;;;;;;10.63;4.20;;;17.30;99.90;;;;;;4072826;28;20236;-70
2021/10/20 09:27:24;;;;;;;6.32;4.57;;;17.20;99.90;;;;;;4072935;28;20575;-70
2021/10/20 09:29:27;;;;;;;8.55;3.97;;;17.30;99.90;;;;;;4071598;29;20104;-70
2021/10/20 09:31:28;;;;;;;5.32;3.88;;;17.30;99.90;;;;;;4074451;28;20043;-70
2021/10/20 09:33:34;;;;;;;7.90;4.32;;;17.30;99.90;;;;;;4074175;28;20547;-70
2021/10/20 09:35:35;;;;;;;6.82;4.00;;;17.30;99.90;;;;;;4072438;29;20051;-70
2021/10/20 09:37:37;;;;;;;5.82;4.32;;;17.30;99.90;;;;;;4069187;28;20043;-70
2021/10/20 09:39:39;;;;;;;9.25;3.50;;;17.40;99.90;;;;;;4073548;28;20542;-70
2021/10/20 09:41:39;;;;;;;5.97;4.15;;;17.40;99.90;;;;;;4075074;28;20036;-70
2021/10/20 09:43:44;;;;;;;5.13;4.00;;;17.40;99.90;;;;;;4072463;28;20510;-70
2021/10/20 09:45:46;;;;;;;7.35;4.55;;;17.30;99.90;;;;;;4069498;28;20032;-70
2021/10/20 09:47:47;;;;;;;6.65;4.20;;;17.30;99.90;;;;;;4072562;28;20549;-70
2021/10/20 09:49:56;;;;;;;5.30;4.25;;;17.40;99.90;;;;;;4073023;28;20036;-70
2021/10/20 09:51:58;;;;;;;5.32;4.32;;;17.30;99.90;;;;;;4077400;28;20453;-70
2021/10/20 09:53:58;;;;;;;6.05;3.78;;;17.40;99.90;;;;;;4075773;28;20058;-70
2021/10/20 09:56:02;;;;;;;6.18;4.35;;;17.40;99.90;;;;;;4071803;28;20035;-70
2021/10/20 09:58:13;;;;;;;6.40;3.97;;;17.40;99.90;;;;;;4071105;28;20511;-70
2021/10/20 10:00:14;;;;;;;4.78;3.85;;;17.40;99.90;;;;;;4072013;28;20488;-70
2021/10/20 10:02:14;;;;;;;5.53;4.28;;;17.50;99.90;;;;;;4080610;28;20031;-70
2021/10/20 10:04:15;;;;;;;10.07;4.50;;;17.50;99.90;;;;;;4071567;29;20039;-70
2021/10/20 10:06:16;;;;;;;6.65;3.88;;;17.50;99.90;;;;;;4077629;28;20040;-70
2021/10/20 10:08:17;;;;;;;6.70;4.03;;;17.50;99.90;;;;;;4073598;28;20432;-70
2021/10/20 10:10:18;;;;;;;5.25;4.25;;;17.50;99.90;;;;;;4074051;28;20491;-70
2021/10/20 10:12:23;;;;;;;6.75;4.40;;;17.50;99.90;;;;;;4076005;28;20483;-70
2021/10/20 10:14:38;;;;;;;7.85;4.72;;;17.60;99.90;;;;;;4073789;29;20139;-70
2021/10/20 10:16:39;;;;;;;4.68;3.60;;;17.60;99.90;;;;;;4074061;29;20068;-70
2021/10/20 10:18:41;;;;;;;7.47;4.60;;;17.60;99.90;;;;;;4063955;28;20070;-70
2021/10/20 10:20:44;;;;;;;6.68;4.00;;;17.60;99.90;;;;;;4077820;28;20032;-70
2021/10/20 10:22:59;;;;;;;;;;;17.60;99.90;;;;;;4079707;28;20526;-70
2021/10/20 10:25:06;;;;;;;7.78;4.40;;;17.60;99.90;;;;;;4072831;29;19918;-70
2021/10/20 10:27:11;;;;;;;6.95;4.60;;;17.60;99.90;;;;;;4075790;28;20471;-70
2021/10/20 10:29:13;;;;;;;6.15;4.18;;;17.50;99.90;;;;;;4073617;28;20043;-70
2021/10/20 10:31:13;;;;;;;5.60;3.90;;;17.50;99.90;;;;;;4075396;28;20070;-70
2021/10/20 10:33:29;;;;;;;4.68;3.78;;;17.50;99.90;;;;;;4071988;28;20279;-70